Current Weather

Mc Guire Fld (Joint Base Mc Guire Dix Lakehurst)

Wrightstown, New Jersey (KWRI)

Report from: Friday, February 23, 2024 2:01 PM EST
Current time: Friday, February 23, 2024 2:25 PM EST

Nearby weather – Weather history – Daily summaries
Weather forecast

Present weatherLight drizzle
Temperature9.0°C (48.2°F)
Wind chill7.3°C (45.1°F)
Dew point5.0°C (41.0°F)
Winds 6 kts (3.1 m/s, 6.9 mph) North-Northwest (340°)
Visibility10 mi. (16.1 km)
Clouds Ceiling: Broken clouds 1,500 ft. (457 m)
Overcast 2,000 ft. (610 m)
Altimeter29.44 in.Hg (997 mB)
Precip. events Drizzle began 2:01 PM
Relative humidity76 %
Density altitude-36 ft. (-11 m)
Sea-level pressure99.7 kPa (997 mB, 29.44 in.Hg)
Remarks Special weather observation
Automated weather observing station with precipitation discriminator
Variable
Flight conditions Marginal Visual Meteorological Conditions
Raw dataSPECI KWRI 231901Z 34006KT 10SM -DZ BKN015 OVC020 09/05 A2944 RMK AO2A DZB01 BKN V OVC SLP970
An error has occurred. This application may no longer respond until reloaded. Reload 🗙